Time;durP1;ratioP1;P1;durP2;ratioP2;P2;SDS_P1;SDS_P2;PMS_P1;PMS_P2;Temp;Humidity;BMP_temperature;BMP_pressure;BME280_temperature;BME280_humidity;BME280_pressure;Samples;Min_cycle;Max_cycle;Signal;HPM_P1;HPM_P2
2021/08/29 00:01:18;;;;;;;14.98;5.78;;;16.20;99.90;;;;;;5073679;28;20559;-74
2021/08/29 00:03:43;;;;;;;18.25;5.15;;;16.20;99.90;;;;;;5075414;28;20090;-75
2021/08/29 00:06:09;;;;;;;12.15;4.70;;;16.30;99.90;;;;;;5075079;28;20040;-73
2021/08/29 00:08:35;;;;;;;13.25;4.78;;;16.20;99.90;;;;;;5074336;28;20071;-73
2021/08/29 00:11:00;;;;;;;12.52;4.45;;;16.30;99.90;;;;;;5074628;28;20451;-73
2021/08/29 00:13:26;;;;;;;12.63;4.30;;;16.20;99.90;;;;;;5073598;28;20102;-73
2021/08/29 00:15:52;;;;;;;11.57;5.13;;;16.20;99.90;;;;;;5073681;28;20068;-74
2021/08/29 00:18:17;;;;;;;14.75;5.00;;;16.20;99.90;;;;;;5074957;28;20048;-74
2021/08/29 00:20:44;;;;;;;7.20;4.28;;;16.20;99.90;;;;;;5056491;28;20036;-74
2021/08/29 00:23:10;;;;;;;9.75;4.70;;;16.20;99.90;;;;;;5074732;28;20045;-73
2021/08/29 00:25:36;;;;;;;13.20;4.65;;;16.20;99.90;;;;;;5073229;28;20089;-73
2021/08/29 00:28:02;;;;;;;8.48;4.50;;;16.30;99.90;;;;;;5074663;28;20040;-74
2021/08/29 00:30:27;;;;;;;11.30;5.00;;;16.30;99.90;;;;;;5055967;28;20404;-74
2021/08/29 00:32:53;;;;;;;15.23;4.78;;;16.30;99.90;;;;;;5074565;28;20032;-74
2021/08/29 00:35:18;;;;;;;14.10;4.13;;;16.30;99.90;;;;;;5074350;28;20488;-74
2021/08/29 00:37:44;;;;;;;10.25;4.57;;;16.30;99.90;;;;;;5073696;28;20037;-74
2021/08/29 00:40:10;;;;;;;11.75;4.60;;;16.30;99.90;;;;;;5056148;28;20048;-74
2021/08/29 00:42:36;;;;;;;12.63;5.25;;;16.30;99.90;;;;;;5074062;28;20037;-74
2021/08/29 00:45:02;;;;;;;14.45;5.03;;;16.30;99.90;;;;;;5072951;28;20044;-74
2021/08/29 00:47:31;;;;;;;9.82;4.82;;;16.30;99.90;;;;;;5056269;28;20401;-74
2021/08/29 00:49:56;;;;;;;13.15;5.20;;;16.30;99.90;;;;;;5073848;28;20052;-74
2021/08/29 00:52:22;;;;;;;11.43;4.75;;;16.40;99.90;;;;;;5073049;28;20511;-74
2021/08/29 00:54:47;;;;;;;13.23;4.30;;;16.40;99.90;;;;;;5073970;28;20074;-74
2021/08/29 00:57:13;;;;;;;18.45;5.45;;;16.30;99.90;;;;;;5072657;28;20045;-74
2021/08/29 00:59:42;;;;;;;13.30;4.40;;;16.30;99.90;;;;;;5073779;28;20052;-74
2021/08/29 01:02:13;;;;;;;10.65;4.90;;;16.30;99.90;;;;;;5074519;28;20040;-74
2021/08/29 01:04:52;;;;;;;10.00;4.63;;;16.40;99.90;;;;;;5072925;28;20044;-74
2021/08/29 01:07:24;;;;;;;15.85;5.25;;;16.40;99.90;;;;;;5072455;28;20044;-74
2021/08/29 01:09:58;;;;;;;15.77;4.65;;;16.30;99.90;;;;;;5073770;28;20043;-75
2021/08/29 01:12:26;;;;;;;13.60;4.22;;;16.40;99.90;;;;;;5072402;28;20040;-72
2021/08/29 01:14:53;;;;;;;12.85;4.70;;;16.30;99.90;;;;;;5074061;28;20127;-73
2021/08/29 01:17:23;;;;;;;11.32;5.32;;;16.40;99.90;;;;;;5073679;28;20044;-72
2021/08/29 01:20:03;;;;;;;11.73;4.72;;;16.40;99.90;;;;;;5073965;28;20044;-73
2021/08/29 01:22:33;;;;;;;13.30;4.65;;;16.40;99.90;;;;;;5073547;28;20040;-73
2021/08/29 01:24:59;;;;;;;11.23;4.28;;;16.40;99.90;;;;;;5072467;28;20032;-73
2021/08/29 01:27:32;;;;;;;11.80;4.95;;;16.40;99.90;;;;;;5074037;28;20039;-73
2021/08/29 01:29:59;;;;;;;12.15;4.47;;;16.40;99.90;;;;;;5071766;28;20048;-73
2021/08/29 01:32:25;;;;;;;12.30;4.38;;;16.30;99.90;;;;;;5073476;28;20044;-73
2021/08/29 01:34:51;;;;;;;10.50;3.45;;;16.30;99.90;;;;;;5072332;28;20048;-73
2021/08/29 01:37:18;;;;;;;14.70;4.88;;;16.40;99.90;;;;;;5073751;28;20059;-72
2021/08/29 01:39:44;;;;;;;14.13;4.20;;;16.30;99.90;;;;;;5072961;28;20055;-73
2021/08/29 01:42:11;;;;;;;11.35;4.20;;;16.30;99.90;;;;;;5073289;28;20080;-73
2021/08/29 01:44:38;;;;;;;11.63;4.18;;;16.30;99.90;;;;;;5071955;28;20040;-73
2021/08/29 01:47:05;;;;;;;10.82;4.30;;;16.30;99.90;;;;;;5072132;28;20048;-73
2021/08/29 01:49:32;;;;;;;15.10;4.45;;;16.30;99.90;;;;;;5070987;28;20076;-72
2021/08/29 01:51:57;;;;;;;12.85;4.60;;;16.30;99.90;;;;;;5071922;28;20040;-73
2021/08/29 01:54:23;;;;;;;10.00;4.07;;;16.30;99.90;;;;;;5072378;28;20436;-73
2021/08/29 01:57:11;;;;;;;13.60;4.80;;;16.30;99.90;;;;;;5073493;28;20041;-73
2021/08/29 01:59:37;;;;;;;9.68;4.03;;;16.30;99.90;;;;;;5071563;28;20063;-73
2021/08/29 02:02:03;;;;;;;9.43;3.88;;;16.30;99.90;;;;;;5072072;28;20043;-73
2021/08/29 02:04:29;;;;;;;12.23;4.22;;;16.30;99.90;;;;;;5073190;28;20435;-73
2021/08/29 02:07:13;;;;;;;10.30;4.32;;;16.30;99.90;;;;;;5073484;28;20139;-73
2021/08/29 02:09:52;;;;;;;11.65;4.78;;;16.30;99.90;;;;;;5071896;28;20132;-73
2021/08/29 02:12:18;;;;;;;13.27;3.55;;;16.30;99.90;;;;;;5055092;28;20052;-73
2021/08/29 02:15:08;;;;;;;12.85;4.45;;;16.20;99.90;;;;;;5073527;28;20044;-73
2021/08/29 02:17:35;;;;;;;9.23;3.92;;;16.30;99.90;;;;;;5073064;28;20123;-73
2021/08/29 02:20:07;;;;;;;17.25;4.63;;;16.20;99.90;;;;;;5072566;28;20048;-73
2021/08/29 02:22:34;;;;;;;12.07;3.90;;;16.20;99.90;;;;;;5072967;28;20530;-72
2021/08/29 02:25:04;;;;;;;9.23;3.72;;;16.30;99.90;;;;;;5071626;28;20045;-73
2021/08/29 02:27:30;;;;;;;15.25;5.05;;;16.20;99.90;;;;;;5071756;28;20048;-72
2021/08/29 02:29:56;;;;;;;12.57;3.88;;;16.20;99.90;;;;;;5071298;28;20056;-73
2021/08/29 02:32:22;;;;;;;10.88;4.38;;;16.30;99.90;;;;;;5072635;28;20048;-74
2021/08/29 02:34:48;;;;;;;8.68;3.95;;;16.30;99.90;;;;;;5071460;28;20036;-74
2021/08/29 02:37:15;;;;;;;12.43;4.30;;;16.30;99.90;;;;;;5072932;28;20117;-73
2021/08/29 02:39:41;;;;;;;13.55;4.38;;;16.30;99.90;;;;;;5072442;28;20136;-74
2021/08/29 02:42:07;;;;;;;11.02;4.63;;;16.30;99.90;;;;;;5072473;28;20115;-74
2021/08/29 02:44:36;;;;;;;7.82;3.33;;;16.20;99.90;;;;;;5072645;28;20047;-74
2021/08/29 02:47:03;;;;;;;11.98;4.40;;;16.30;99.90;;;;;;5071526;28;20086;-74
2021/08/29 02:49:35;;;;;;;12.98;4.50;;;16.30;99.90;;;;;;5072470;28;20044;-74
2021/08/29 02:52:01;;;;;;;10.35;3.60;;;16.20;99.90;;;;;;5071603;28;20044;-74
2021/08/29 02:54:28;;;;;;;11.18;3.95;;;16.30;99.90;;;;;;5072937;28;20493;-74
2021/08/29 02:56:55;;;;;;;7.95;3.47;;;16.30;99.90;;;;;;5072926;28;20036;-74
2021/08/29 02:59:21;;;;;;;10.85;3.50;;;16.30;99.90;;;;;;5071267;28;20453;-74
2021/08/29 03:01:48;;;;;;;11.02;3.25;;;16.30;99.90;;;;;;5075136;28;20096;-74
2021/08/29 03:04:14;;;;;;;12.35;4.18;;;16.30;99.90;;;;;;5076193;28;20040;-73
2021/08/29 03:06:40;;;;;;;9.13;3.38;;;16.30;99.90;;;;;;5076287;28;20036;-74
2021/08/29 03:09:09;;;;;;;11.40;3.38;;;16.30;99.90;;;;;;5074720;28;20037;-73
2021/08/29 03:11:35;;;;;;;8.85;3.10;;;16.30;99.90;;;;;;5076032;28;20139;-74
2021/08/29 03:14:02;;;;;;;9.30;3.60;;;16.30;99.90;;;;;;5074710;28;20089;-74
2021/08/29 03:16:31;;;;;;;11.13;2.83;;;16.30;99.90;;;;;;5075877;28;20441;-74
2021/08/29 03:18:59;;;;;;;11.60;3.42;;;16.30;99.90;;;;;;5075587;28;20127;-74
2021/08/29 03:21:25;;;;;;;11.23;3.45;;;16.30;99.90;;;;;;5075940;28;20029;-73
2021/08/29 03:23:51;;;;;;;12.00;3.95;;;16.30;99.90;;;;;;5058255;28;20051;-74
2021/08/29 03:26:17;;;;;;;11.60;3.22;;;16.30;99.90;;;;;;5074753;28;20120;-74
2021/08/29 03:28:43;;;;;;;9.25;3.30;;;16.20;99.90;;;;;;5075557;28;20044;-74
2021/08/29 03:31:12;;;;;;;9.57;3.17;;;16.30;99.90;;;;;;5075665;28;20407;-74
2021/08/29 03:33:43;;;;;;;9.55;3.22;;;16.30;99.90;;;;;;5075715;28;20062;-73
2021/08/29 03:36:13;;;;;;;6.93;3.20;;;16.30;99.90;;;;;;5075595;28;20123;-73
2021/08/29 03:38:40;;;;;;;8.13;3.03;;;16.20;99.90;;;;;;5075409;28;20423;-74
2021/08/29 03:41:07;;;;;;;8.55;3.13;;;16.30;99.90;;;;;;5075423;28;20040;-74
2021/08/29 03:43:32;;;;;;;9.60;3.63;;;16.30;99.90;;;;;;5075326;28;20037;-74
2021/08/29 03:45:59;;;;;;;10.93;4.07;;;16.30;99.90;;;;;;5075457;28;20056;-73
2021/08/29 03:48:24;;;;;;;17.45;3.70;;;16.30;99.90;;;;;;5075343;28;20064;-74
2021/08/29 03:50:50;;;;;;;16.60;3.22;;;16.30;99.90;;;;;;5075056;28;20067;-74
2021/08/29 03:53:17;;;;;;;12.68;3.42;;;16.30;99.90;;;;;;5075900;28;20040;-73
2021/08/29 03:55:43;;;;;;;7.22;3.15;;;16.30;99.90;;;;;;5075328;28;20123;-74
2021/08/29 03:58:09;;;;;;;8.15;3.00;;;16.30;99.90;;;;;;5074001;28;20388;-74
2021/08/29 04:00:35;;;;;;;12.35;4.03;;;16.30;99.90;;;;;;5074692;28;20052;-74
2021/08/29 04:03:01;;;;;;;11.15;3.22;;;16.30;99.90;;;;;;5057265;28;20063;-73
2021/08/29 04:05:26;;;;;;;8.85;3.55;;;16.30;99.90;;;;;;5075304;28;20137;-74
2021/08/29 04:07:54;;;;;;;8.23;3.38;;;16.30;99.90;;;;;;5073682;28;20040;-74
2021/08/29 04:10:22;;;;;;;9.48;3.47;;;16.30;99.90;;;;;;5074547;28;20044;-73
2021/08/29 04:12:48;;;;;;;15.13;4.50;;;16.30;99.90;;;;;;5074198;28;20052;-73
2021/08/29 04:15:17;;;;;;;8.50;3.67;;;16.40;99.90;;;;;;5074900;28;20485;-73
2021/08/29 04:17:44;;;;;;;10.55;3.72;;;16.40;99.90;;;;;;5074998;28;20485;-74
2021/08/29 04:20:12;;;;;;;13.98;3.55;;;16.40;99.90;;;;;;5056619;28;20040;-74
2021/08/29 04:22:38;;;;;;;10.45;4.00;;;16.40;99.90;;;;;;5074570;28;20087;-74
2021/08/29 04:25:04;;;;;;;9.18;2.85;;;16.40;99.90;;;;;;5074871;28;20441;-74
2021/08/29 04:27:30;;;;;;;12.73;3.42;;;16.40;99.90;;;;;;5073523;28;20169;-74
2021/08/29 04:29:56;;;;;;;14.05;3.88;;;16.40;99.90;;;;;;5074546;28;20128;-73
2021/08/29 04:32:23;;;;;;;17.92;4.63;;;16.50;99.90;;;;;;5073495;28;20483;-74
2021/08/29 04:34:48;;;;;;;18.67;5.40;;;16.50;99.90;;;;;;5074957;28;20041;-74
2021/08/29 04:37:14;;;;;;;16.45;3.85;;;16.40;99.90;;;;;;5074271;28;20043;-76
2021/08/29 04:39:41;;;;;;;13.40;3.92;;;16.30;99.90;;;;;;5073223;28;20040;-75
2021/08/29 04:42:06;;;;;;;8.25;3.28;;;16.20;99.90;;;;;;5074543;28;20048;-74
2021/08/29 04:44:32;;;;;;;7.88;3.47;;;16.00;99.90;;;;;;5074644;28;20029;-74
2021/08/29 04:46:58;;;;;;;10.55;3.50;;;15.80;99.90;;;;;;5074438;28;20472;-74
2021/08/29 04:49:23;;;;;;;10.98;3.63;;;15.70;99.90;;;;;;5074101;28;20045;-75
2021/08/29 04:51:49;;;;;;;9.07;4.07;;;15.80;99.90;;;;;;5074204;28;20029;-75
2021/08/29 04:54:14;;;;;;;5.22;2.92;;;15.70;99.90;;;;;;5073076;28;20041;-75
2021/08/29 04:56:40;;;;;;;10.35;2.97;;;15.70;99.90;;;;;;5073922;28;20037;-75
2021/08/29 04:59:06;;;;;;;10.35;3.88;;;15.60;99.90;;;;;;5073760;28;20401;-75
2021/08/29 05:01:31;;;;;;;10.75;3.70;;;15.60;99.90;;;;;;5073930;28;20076;-75
2021/08/29 05:03:58;;;;;;;8.23;3.35;;;15.60;99.90;;;;;;5074020;28;20397;-74
2021/08/29 05:06:24;;;;;;;7.60;3.85;;;15.60;99.90;;;;;;5073792;28;20052;-76
2021/08/29 05:08:50;;;;;;;11.20;4.05;;;15.60;99.90;;;;;;5072865;28;20090;-75
2021/08/29 05:11:15;;;;;;;9.45;4.63;;;15.60;99.90;;;;;;5072681;28;20127;-74
2021/08/29 05:13:41;;;;;;;13.35;4.03;;;15.60;99.90;;;;;;5072814;28;20365;-74
2021/08/29 05:16:07;;;;;;;10.32;3.47;;;15.60;99.90;;;;;;5073121;28;20040;-74
2021/08/29 05:18:33;;;;;;;15.35;4.20;;;15.60;99.90;;;;;;5073764;28;20124;-75
2021/08/29 05:20:59;;;;;;;13.88;4.65;;;15.60;99.90;;;;;;5074012;28;20048;-74
2021/08/29 05:23:24;;;;;;;11.88;4.20;;;15.60;99.90;;;;;;5073982;28;20376;-74
2021/08/29 05:25:50;;;;;;;15.40;4.32;;;15.60;99.90;;;;;;5073691;28;20040;-74
2021/08/29 05:28:16;;;;;;;12.57;5.30;;;15.50;99.90;;;;;;5072288;28;20041;-74
2021/08/29 05:30:41;;;;;;;18.27;4.28;;;15.50;99.90;;;;;;5073491;28;20101;-74
2021/08/29 05:33:07;;;;;;;17.33;4.80;;;15.50;99.90;;;;;;5073899;28;20119;-73
2021/08/29 05:35:32;;;;;;;17.45;4.90;;;15.50;99.90;;;;;;5073961;28;20033;-74
2021/08/29 05:37:58;;;;;;;15.70;4.07;;;15.60;99.90;;;;;;5073949;28;20093;-74
2021/08/29 05:40:24;;;;;;;16.42;5.10;;;15.50;99.90;;;;;;5073046;28;20052;-74
2021/08/29 05:42:49;;;;;;;15.20;3.95;;;15.40;99.90;;;;;;5073170;28;20036;-74
2021/08/29 05:45:15;;;;;;;19.58;4.53;;;15.40;99.90;;;;;;5073329;28;20072;-74
2021/08/29 05:47:40;;;;;;;16.38;4.90;;;15.50;99.90;;;;;;5073352;28;20036;-74
2021/08/29 05:50:07;;;;;;;11.70;4.18;;;15.50;99.90;;;;;;5072857;28;20043;-74
2021/08/29 05:52:32;;;;;;;17.92;4.07;;;15.50;99.90;;;;;;5073067;28;20051;-73
2021/08/29 05:54:58;;;;;;;14.10;4.85;;;15.50;99.90;;;;;;5071903;28;20123;-74
2021/08/29 05:57:23;;;;;;;13.07;3.53;;;15.50;99.90;;;;;;5073141;28;20037;-74
2021/08/29 05:59:49;;;;;;;11.27;4.50;;;15.50;99.90;;;;;;5073682;28;20512;-73
2021/08/29 06:02:14;;;;;;;15.68;3.58;;;15.50;99.90;;;;;;5073608;28;20036;-73
2021/08/29 06:04:41;;;;;;;15.82;4.30;;;15.50;99.90;;;;;;5073419;28;20086;-73
2021/08/29 06:07:08;;;;;;;10.23;3.30;;;15.50;99.90;;;;;;5073607;28;20515;-73
2021/08/29 06:09:36;;;;;;;16.23;4.30;;;15.60;99.90;;;;;;5073164;28;20044;-73
2021/08/29 06:12:02;;;;;;;14.30;4.63;;;15.60;99.90;;;;;;5073078;28;20086;-73
2021/08/29 06:14:28;;;;;;;14.20;4.03;;;15.60;99.90;;;;;;5073077;28;20037;-74
2021/08/29 06:16:53;;;;;;;13.27;3.80;;;15.50;99.90;;;;;;5071650;28;20047;-74
2021/08/29 06:19:19;;;;;;;14.63;3.33;;;15.50;99.90;;;;;;5071439;28;20098;-73
2021/08/29 06:21:45;;;;;;;16.88;3.88;;;15.50;99.90;;;;;;5054942;28;20101;-73
2021/08/29 06:24:10;;;;;;;16.63;3.63;;;15.60;99.90;;;;;;5072077;28;20127;-72
2021/08/29 06:26:36;;;;;;;18.00;4.50;;;15.50;99.90;;;;;;5073045;28;20052;-73
2021/08/29 06:29:02;;;;;;;16.15;4.72;;;15.50;99.90;;;;;;5072762;28;20036;-74
2021/08/29 06:31:27;;;;;;;14.32;4.28;;;15.60;99.90;;;;;;5072860;28;20408;-73
2021/08/29 06:33:53;;;;;;;14.90;4.38;;;15.70;99.90;;;;;;5071744;28;20225;-74
2021/08/29 06:36:18;;;;;;;15.35;4.72;;;15.70;99.90;;;;;;5073887;28;20036;-74
2021/08/29 06:38:44;;;;;;;18.23;4.20;;;15.60;99.90;;;;;;5076501;28;20036;-73
2021/08/29 06:41:09;;;;;;;17.23;4.93;;;15.70;99.90;;;;;;5076924;28;20032;-74
2021/08/29 06:43:35;;;;;;;13.10;3.70;;;15.70;99.90;;;;;;5076706;28;20481;-74
2021/08/29 06:46:01;;;;;;;19.40;4.95;;;15.60;99.90;;;;;;5076782;28;20415;-73
2021/08/29 06:48:26;;;;;;;13.55;4.80;;;15.70;99.90;;;;;;5077217;28;20083;-72
2021/08/29 06:50:52;;;;;;;15.68;4.90;;;15.70;99.90;;;;;;5075560;28;20036;-71
2021/08/29 06:53:17;;;;;;;16.38;5.47;;;15.60;99.90;;;;;;5076710;28;20044;-72
2021/08/29 06:55:43;;;;;;;12.27;4.43;;;15.60;99.90;;;;;;5076979;28;20488;-73
2021/08/29 06:58:09;;;;;;;20.65;5.18;;;15.60;99.90;;;;;;5075648;28;20055;-73
2021/08/29 07:00:34;;;;;;;14.70;4.97;;;15.60;99.90;;;;;;5076005;28;20105;-73
2021/08/29 07:03:00;;;;;;;17.63;5.55;;;15.60;99.90;;;;;;5076969;28;20412;-74
2021/08/29 07:05:26;;;;;;;17.55;5.82;;;15.60;99.90;;;;;;5076683;28;20040;-73
2021/08/29 07:07:52;;;;;;;18.08;5.30;;;15.60;99.90;;;;;;5076377;28;20037;-74
2021/08/29 07:10:18;;;;;;;14.43;5.30;;;15.60;99.90;;;;;;5075814;28;20050;-73
2021/08/29 07:12:43;;;;;;;12.40;5.18;;;15.60;99.90;;;;;;5076110;28;20036;-73
2021/08/29 07:15:09;;;;;;;16.38;5.30;;;15.70;99.90;;;;;;5076241;28;20456;-73
2021/08/29 07:17:35;;;;;;;11.35;4.82;;;15.60;99.90;;;;;;5075938;28;20033;-73
2021/08/29 07:20:01;;;;;;;19.55;6.97;;;15.70;99.90;;;;;;5075546;28;20052;-73
2021/08/29 07:22:26;;;;;;;16.33;6.32;;;15.70;99.90;;;;;;5075806;28;20071;-73
2021/08/29 07:24:52;;;;;;;13.52;6.55;;;15.80;99.90;;;;;;5076010;28;20098;-74
2021/08/29 07:27:17;;;;;;;21.02;7.20;;;15.80;99.90;;;;;;5075847;28;20036;-74
2021/08/29 07:29:43;;;;;;;23.63;7.15;;;15.80;99.90;;;;;;5075670;28;20048;-73
2021/08/29 07:32:09;;;;;;;24.08;7.30;;;15.90;99.90;;;;;;5075623;28;20107;-73
2021/08/29 07:34:34;;;;;;;21.90;7.43;;;16.00;99.90;;;;;;5075648;28;20047;-74
2021/08/29 07:37:01;;;;;;;22.88;7.18;;;16.00;99.90;;;;;;5075639;28;20037;-77
2021/08/29 07:39:26;;;;;;;19.30;6.75;;;16.00;99.90;;;;;;5086181;28;20044;-74
2021/08/29 07:41:52;;;;;;;19.50;6.55;;;16.10;99.90;;;;;;5094365;28;20043;-74
2021/08/29 07:44:18;;;;;;;16.08;7.20;;;16.10;99.90;;;;;;5096056;28;20040;-73
2021/08/29 07:46:43;;;;;;;15.85;6.68;;;16.10;99.90;;;;;;5095463;28;20408;-74
2021/08/29 07:49:09;;;;;;;19.52;7.15;;;16.10;99.90;;;;;;5095345;28;20044;-74
2021/08/29 07:51:34;;;;;;;19.20;6.50;;;16.10;99.90;;;;;;5095818;28;20040;-74
2021/08/29 07:54:00;;;;;;;18.52;7.30;;;16.10;99.90;;;;;;5077437;28;20539;-74
2021/08/29 07:56:26;;;;;;;17.15;6.25;;;16.10;99.90;;;;;;5095435;28;20044;-72
2021/08/29 07:58:51;;;;;;;15.35;5.45;;;16.20;99.90;;;;;;5094039;28;20040;-74
2021/08/29 08:01:17;;;;;;;12.38;4.97;;;16.30;99.90;;;;;;5094562;28;20394;-73
2021/08/29 08:03:42;;;;;;;14.07;4.97;;;16.30;99.90;;;;;;5094253;28;20067;-73
2021/08/29 08:06:08;;;;;;;14.60;5.45;;;16.40;99.90;;;;;;5095280;28;20067;-73
2021/08/29 08:08:33;;;;;;;12.90;4.32;;;16.30;99.90;;;;;;5095083;28;20039;-74
2021/08/29 08:10:59;;;;;;;14.30;4.47;;;16.40;99.90;;;;;;5094212;28;20044;-74
2021/08/29 08:13:25;;;;;;;7.13;3.78;;;16.40;99.90;;;;;;5095362;28;20051;-73
2021/08/29 08:15:51;;;;;;;6.38;4.13;;;16.40;99.90;;;;;;5095238;28;20072;-74
2021/08/29 08:18:16;;;;;;;12.00;4.35;;;16.30;99.90;;;;;;5094936;28;20051;-74
2021/08/29 08:20:42;;;;;;;9.30;4.38;;;16.40;99.90;;;;;;5094444;28;20051;-74
2021/08/29 08:23:11;;;;;;;11.07;3.67;;;16.40;99.90;;;;;;5093913;28;20043;-73
2021/08/29 08:25:36;;;;;;;11.80;4.05;;;16.40;99.90;;;;;;5094971;28;20040;-73
2021/08/29 08:28:02;;;;;;;10.27;3.53;;;16.40;99.90;;;;;;5094009;28;20040;-73
2021/08/29 08:30:28;;;;;;;7.93;3.05;;;16.30;99.90;;;;;;5093082;28;20480;-74
2021/08/29 08:32:55;;;;;;;9.68;3.83;;;16.40;99.90;;;;;;5093747;28;20052;-74
2021/08/29 08:35:21;;;;;;;5.32;3.65;;;16.30;99.90;;;;;;5094931;28;20456;-74
2021/08/29 08:37:46;;;;;;;7.95;3.38;;;16.30;99.90;;;;;;5094639;28;20074;-74
2021/08/29 08:40:15;;;;;;;10.27;3.08;;;16.30;99.90;;;;;;5092866;28;20136;-74
2021/08/29 08:42:41;;;;;;;6.53;3.45;;;16.30;99.90;;;;;;5093123;28;20093;-74
2021/08/29 08:45:08;;;;;;;6.80;2.90;;;16.30;99.90;;;;;;5093570;28;20044;-74
2021/08/29 08:47:35;;;;;;;6.38;3.58;;;16.40;99.90;;;;;;5094345;28;20028;-74
2021/08/29 08:50:01;;;;;;;6.97;3.50;;;16.40;99.90;;;;;;5094228;28;20120;-74
2021/08/29 08:52:29;;;;;;;8.63;3.63;;;16.40;99.90;;;;;;5093217;28;20177;-74
2021/08/29 08:54:58;;;;;;;9.07;3.17;;;16.40;99.90;;;;;;5093172;28;20480;-74
2021/08/29 08:57:24;;;;;;;8.00;3.13;;;16.40;99.90;;;;;;5094164;28;20076;-74
2021/08/29 08:59:50;;;;;;;10.98;3.38;;;16.40;99.90;;;;;;5075214;28;20051;-74
2021/08/29 09:02:19;;;;;;;6.15;3.22;;;16.40;99.90;;;;;;5094230;28;20042;-74
2021/08/29 09:04:45;;;;;;;8.43;3.45;;;16.40;99.90;;;;;;5094355;28;20032;-75
2021/08/29 09:07:12;;;;;;;4.60;3.25;;;16.40;99.90;;;;;;5094490;28;20028;-74
2021/08/29 09:09:38;;;;;;;5.95;2.85;;;16.40;99.90;;;;;;5093878;28;20076;-75
2021/08/29 09:12:04;;;;;;;9.13;3.30;;;16.40;99.90;;;;;;5093962;28;20377;-74
2021/08/29 09:14:39;;;;;;;7.05;3.15;;;16.40;99.90;;;;;;5093991;28;20433;-74
2021/08/29 09:17:21;;;;;;;9.27;3.90;;;16.40;99.90;;;;;;5092511;28;20047;-74
2021/08/29 09:19:47;;;;;;;8.05;3.20;;;16.40;99.90;;;;;;5093470;28;20052;-73
2021/08/29 09:22:26;;;;;;;7.15;3.72;;;16.40;99.90;;;;;;5092463;28;20036;-73
2021/08/29 09:24:52;;;;;;;5.90;3.25;;;16.40;99.90;;;;;;5093774;28;20082;-75
2021/08/29 09:27:24;;;;;;;4.85;2.83;;;16.40;99.90;;;;;;5093883;28;20376;-75
2021/08/29 09:29:51;;;;;;;6.18;3.00;;;16.40;99.90;;;;;;5092336;28;20083;-75
2021/08/29 09:32:20;;;;;;;8.00;3.08;;;16.40;99.90;;;;;;5093981;28;20269;-75
2021/08/29 09:34:59;;;;;;;7.15;2.60;;;16.40;99.90;;;;;;5093900;28;20089;-74
2021/08/29 09:37:25;;;;;;;8.32;2.55;;;16.40;99.90;;;;;;5093578;28;20086;-74
2021/08/29 09:39:50;;;;;;;6.22;2.63;;;16.40;99.90;;;;;;5092972;28;20075;-73
2021/08/29 09:42:16;;;;;;;9.07;2.80;;;16.40;99.90;;;;;;5093846;28;20059;-73
2021/08/29 09:44:42;;;;;;;3.72;2.75;;;16.40;99.90;;;;;;5093772;28;20389;-74
2021/08/29 09:47:12;;;;;;;7.72;2.60;;;16.40;99.90;;;;;;5093758;28;20036;-74
2021/08/29 09:49:37;;;;;;;9.63;2.63;;;16.40;99.90;;;;;;5093205;28;20539;-74
2021/08/29 09:52:05;;;;;;;8.75;3.17;;;16.30;99.90;;;;;;5075124;28;20044;-74
2021/08/29 09:54:41;;;;;;;7.68;3.17;;;16.30;99.90;;;;;;5094137;28;20036;-74
2021/08/29 09:57:10;;;;;;;9.63;3.28;;;16.40;99.90;;;;;;5092472;28;20048;-74
2021/08/29 09:59:46;;;;;;;4.90;2.55;;;16.30;99.90;;;;;;5092964;28;20119;-75
2021/08/29 10:02:17;;;;;;;7.93;2.92;;;16.30;99.90;;;;;;5085921;28;20488;-73
2021/08/29 10:04:43;;;;;;;8.30;2.95;;;16.30;99.90;;;;;;5092196;28;20040;-73
2021/08/29 10:07:17;;;;;;;5.47;2.30;;;16.30;99.90;;;;;;5093525;28;20043;-72
2021/08/29 10:09:45;;;;;;;7.75;3.00;;;16.30;99.90;;;;;;5093227;28;20063;-73
2021/08/29 10:12:11;;;;;;;6.70;2.85;;;16.30;99.90;;;;;;5096695;28;20388;-74
2021/08/29 10:14:38;;;;;;;8.65;3.03;;;16.40;99.90;;;;;;5097486;28;20493;-73
2021/08/29 10:17:05;;;;;;;7.55;3.00;;;16.40;99.90;;;;;;5097328;28;20043;-74
2021/08/29 10:19:32;;;;;;;5.50;2.50;;;16.40;99.90;;;;;;5097333;28;20044;-74
2021/08/29 10:21:59;;;;;;;7.55;2.72;;;16.50;99.90;;;;;;5096112;28;20169;-73
2021/08/29 10:24:29;;;;;;;6.57;2.92;;;16.50;99.90;;;;;;5097355;28;20120;-74
2021/08/29 10:26:58;;;;;;;8.20;3.15;;;16.50;99.90;;;;;;5095875;28;20553;-72
2021/08/29 10:29:29;;;;;;;9.95;3.00;;;16.50;99.90;;;;;;5095727;28;20545;-74
2021/08/29 10:32:35;;;;;;;8.52;3.20;;;16.50;99.90;;;;;;5097311;28;20100;-73
2021/08/29 10:35:07;;;;;;;9.73;3.40;;;16.50;99.90;;;;;;5097334;28;20158;-73
2021/08/29 10:37:39;;;;;;;9.93;3.28;;;16.50;99.90;;;;;;5097853;28;20099;-73
2021/08/29 10:40:06;;;;;;;8.68;3.97;;;16.50;99.90;;;;;;5095675;28;20036;-73
2021/08/29 10:42:40;;;;;;;12.07;3.47;;;16.60;99.90;;;;;;5097173;28;20047;-74
2021/08/29 10:45:09;;;;;;;6.85;2.72;;;16.50;99.90;;;;;;5096164;28;20123;-73
2021/08/29 10:47:36;;;;;;;6.72;4.22;;;16.50;99.90;;;;;;5096262;28;20044;-73
2021/08/29 10:50:05;;;;;;;6.43;3.15;;;16.50;99.90;;;;;;5079901;28;20072;-72
2021/08/29 10:52:33;;;;;;;12.48;4.00;;;16.60;99.90;;;;;;5076271;28;20384;-73
2021/08/29 10:55:05;;;;;;;6.90;3.28;;;16.60;99.90;;;;;;5076369;28;20112;-71
2021/08/29 10:57:33;;;;;;;7.65;2.90;;;16.60;99.90;;;;;;5075068;28;20041;-71
2021/08/29 11:00:14;;;;;;;7.13;3.63;;;16.60;99.90;;;;;;5076105;28;20131;-72
2021/08/29 11:02:45;;;;;;;6.00;3.08;;;16.70;99.90;;;;;;5076137;28;20032;-72
2021/08/29 11:05:40;;;;;;;8.30;3.80;;;16.70;99.90;;;;;;5076308;28;20143;-71
2021/08/29 11:08:32;;;;;;;9.25;3.53;;;16.60;99.90;;;;;;5074729;28;20053;-71
2021/08/29 11:10:58;;;;;;;13.43;4.40;;;16.70;99.90;;;;;;5076301;28;20518;-73
2021/08/29 11:13:31;;;;;;;11.00;4.03;;;16.70;99.90;;;;;;5075123;28;20123;-72
2021/08/29 11:16:15;;;;;;;9.18;4.53;;;16.60;99.90;;;;;;5075296;28;20044;-72
2021/08/29 11:18:59;;;;;;;7.55;4.00;;;16.60;99.90;;;;;;5057695;28;20102;-72
2021/08/29 11:21:45;;;;;;;8.68;3.78;;;16.60;99.90;;;;;;5074422;28;20408;-71
2021/08/29 11:24:11;;;;;;;9.50;4.40;;;16.60;99.90;;;;;;5075297;28;20489;-72
2021/08/29 11:26:43;;;;;;;13.05;5.03;;;16.60;99.90;;;;;;5075996;28;20049;-72
2021/08/29 11:29:40;;;;;;;8.10;4.30;;;16.70;99.90;;;;;;5074065;28;20508;-73
2021/08/29 11:32:09;;;;;;;8.50;3.97;;;16.80;99.90;;;;;;5074368;28;20106;-72
2021/08/29 11:34:36;;;;;;;9.38;4.22;;;16.80;99.90;;;;;;5074574;28;20491;-72
2021/08/29 11:37:31;;;;;;;12.95;4.03;;;16.90;99.90;;;;;;5074311;28;20420;-72
2021/08/29 11:40:02;;;;;;;11.32;4.80;;;17.00;99.90;;;;;;5074488;28;20562;-73
2021/08/29 11:42:28;;;;;;;8.40;4.35;;;17.00;99.90;;;;;;5075294;28;20044;-73
2021/08/29 11:44:56;;;;;;;10.18;3.92;;;17.00;99.90;;;;;;5075387;28;20049;-72
2021/08/29 11:47:35;;;;;;;10.90;4.93;;;17.00;99.90;;;;;;5074731;28;20040;-72
2021/08/29 11:50:04;;;;;;;11.63;5.15;;;17.00;99.90;;;;;;5074174;28;20136;-73
2021/08/29 11:52:31;;;;;;;10.93;5.22;;;17.10;99.90;;;;;;5075184;28;20036;-73
2021/08/29 11:55:24;;;;;;;10.05;4.82;;;17.00;99.90;;;;;;5075820;28;20032;-73
2021/08/29 11:57:51;;;;;;;11.30;4.88;;;17.10;99.90;;;;;;5073654;28;20503;-72
2021/08/29 12:00:22;;;;;;;9.65;4.60;;;17.20;99.90;;;;;;5075366;28;20080;-72
2021/08/29 12:02:52;;;;;;;12.40;4.53;;;17.20;99.90;;;;;;5075084;28;20032;-73
2021/08/29 12:05:19;;;;;;;13.15;5.07;;;17.30;99.90;;;;;;5075418;28;20036;-72
2021/08/29 12:08:02;;;;;;;8.43;4.90;;;17.20;99.90;;;;;;5075056;28;20040;-72
2021/08/29 12:10:29;;;;;;;10.60;4.95;;;17.20;99.90;;;;;;5073870;28;20506;-73
2021/08/29 12:12:55;;;;;;;11.77;4.43;;;17.20;99.90;;;;;;5074818;28;20032;-72
2021/08/29 12:15:25;;;;;;;8.98;4.35;;;17.30;99.90;;;;;;5073744;28;20051;-73
2021/08/29 12:17:57;;;;;;;9.93;5.30;;;17.30;99.90;;;;;;5074737;28;20032;-73
2021/08/29 12:20:26;;;;;;;14.15;5.35;;;17.30;99.90;;;;;;5074655;28;20045;-72
2021/08/29 12:22:52;;;;;;;8.73;4.65;;;17.20;99.90;;;;;;5075069;28;20345;-72
2021/08/29 12:25:24;;;;;;;8.07;4.45;;;17.30;99.90;;;;;;5074934;28;20033;-72
2021/08/29 12:27:50;;;;;;;9.95;3.97;;;17.40;99.90;;;;;;5073327;28;20040;-74
2021/08/29 12:30:16;;;;;;;13.65;5.13;;;17.40;99.90;;;;;;5074204;28;20045;-73
2021/08/29 12:32:42;;;;;;;9.95;4.93;;;17.50;99.90;;;;;;5074320;28;20036;-71
2021/08/29 12:35:12;;;;;;;8.60;5.10;;;17.50;99.90;;;;;;5072858;28;20048;-72
2021/08/29 12:37:43;;;;;;;11.55;5.25;;;17.50;99.90;;;;;;5074846;28;20068;-72
2021/08/29 12:40:12;;;;;;;6.65;4.25;;;17.40;99.90;;;;;;5074212;28;20044;-72
2021/08/29 12:42:46;;;;;;;7.63;4.18;;;17.40;99.90;;;;;;5073238;28;20036;-72
2021/08/29 12:45:13;;;;;;;9.70;4.68;;;17.40;99.90;;;;;;5074604;28;20040;-72